Time;durP1;ratioP1;P1;durP2;ratioP2;P2;SDS_P1;SDS_P2;PMS_P1;PMS_P2;Temp;Humidity;BMP_temperature;BMP_pressure;BME280_temperature;BME280_humidity;BME280_pressure;Samples;Min_cycle;Max_cycle;Signal;HPM_P1;HPM_P2
2021/06/01 00:01:11;;;;;;;4.33;3.93;;;11.80;58.30;;;;;;5079592;28;21255;-84
2021/06/01 00:03:38;;;;;;;4.47;4.07;;;11.60;58.60;;;;;;5088443;28;20634;-84
2021/06/01 00:06:06;;;;;;;4.40;4.10;;;11.50;58.80;;;;;;5074393;28;20707;-84
2021/06/01 00:08:32;;;;;;;4.33;3.90;;;11.50;59.70;;;;;;5076192;28;20656;-84
2021/06/01 00:10:59;;;;;;;4.20;3.40;;;11.40;59.70;;;;;;5072492;28;20630;-84
2021/06/01 00:13:25;;;;;;;4.17;3.77;;;11.50;59.50;;;;;;5074577;28;20668;-83
2021/06/01 00:15:52;;;;;;;4.60;4.20;;;11.50;58.70;;;;;;5073900;28;20660;-84
2021/06/01 00:18:18;;;;;;;4.27;3.87;;;11.50;58.70;;;;;;5074083;28;20621;-85
2021/06/01 00:20:45;;;;;;;4.20;3.80;;;11.60;59.80;;;;;;5081136;28;20663;-84
2021/06/01 00:23:13;;;;;;;4.23;3.83;;;11.50;59.90;;;;;;5073807;28;20649;-83
2021/06/01 00:25:40;;;;;;;4.87;4.47;;;11.40;61.10;;;;;;5071880;28;20682;-84
2021/06/01 00:28:06;;;;;;;4.73;4.20;;;11.40;61.10;;;;;;5081220;28;20964;-84
2021/06/01 00:30:33;;;;;;;5.23;4.73;;;11.10;61.60;;;;;;5082143;28;20620;-84
2021/06/01 00:32:59;;;;;;;4.55;4.18;;;11.20;62.60;;;;;;5074045;28;20632;-84
2021/06/01 00:35:26;;;;;;;4.70;4.18;;;11.20;62.60;;;;;;5075117;28;20226;-84
2021/06/01 00:37:52;;;;;;;4.72;4.32;;;11.10;61.90;;;;;;5078001;28;20195;-83
2021/06/01 00:40:20;;;;;;;5.73;4.97;;;11.20;63.40;;;;;;5074652;28;20210;-83
2021/06/01 00:42:47;;;;;;;4.20;3.83;;;11.20;62.20;;;;;;5090392;28;20619;-84
2021/06/01 01:46:50;;;;;;;4.57;4.18;;;10.50;65.60;;;;;;5088521;28;21031;-84
2021/06/01 01:49:18;;;;;;;4.55;4.15;;;10.40;67.20;;;;;;5079933;28;20198;-84
2021/06/01 01:51:47;;;;;;;4.95;4.55;;;10.20;67.30;;;;;;5073129;28;20199;-84
2021/06/01 01:54:17;;;;;;;5.68;4.05;;;10.10;68.30;;;;;;5081456;28;20229;-84
2021/06/01 01:56:49;;;;;;;5.50;4.88;;;10.20;68.40;;;;;;5081915;28;20194;-84
2021/06/01 01:59:20;;;;;;;4.88;4.43;;;10.10;68.20;;;;;;5091295;28;20194;-84
2021/06/01 02:01:53;;;;;;;4.35;3.95;;;10.20;69.40;;;;;;5090898;28;20206;-84
2021/06/01 02:04:23;;;;;;;4.85;4.35;;;10.10;67.20;;;;;;5090333;28;20244;-83
2021/06/01 02:06:50;;;;;;;5.20;4.72;;;10.10;67.80;;;;;;5088049;28;20198;-83
2021/06/01 02:09:21;;;;;;;6.53;4.20;;;10.00;70.00;;;;;;5086261;28;20202;-83
2021/06/01 02:11:48;;;;;;;4.60;4.20;;;10.10;70.00;;;;;;5075504;28;20269;-84
2021/06/01 02:14:17;;;;;;;4.53;4.15;;;10.20;67.60;;;;;;5073231;28;20227;-84
2021/06/01 02:16:47;;;;;;;5.88;4.63;;;10.30;66.80;;;;;;5092611;28;20664;-84
2021/06/01 02:19:19;;;;;;;5.50;4.72;;;10.20;65.80;;;;;;5085758;28;20660;-84
2021/06/01 02:22:16;;;;;;;5.32;4.20;;;10.20;65.20;;;;;;5091027;28;20206;-84
2021/06/01 02:24:47;;;;;;;5.05;4.55;;;10.00;66.10;;;;;;5071943;28;20301;-83
2021/06/01 02:27:19;;;;;;;5.25;4.60;;;10.00;66.10;;;;;;5090010;28;20202;-83
2021/06/01 02:30:02;;;;;;;5.07;4.57;;;9.90;68.20;;;;;;5091330;28;20594;-84
2021/06/01 02:32:33;;;;;;;5.50;5.00;;;9.80;68.60;;;;;;5072253;28;20199;-83
2021/06/01 02:35:08;;;;;;;6.63;5.00;;;9.80;71.80;;;;;;5073189;28;20986;-84
2021/06/01 02:37:36;;;;;;;5.57;5.07;;;9.70;72.80;;;;;;5072322;28;20238;-83
2021/06/01 02:40:05;;;;;;;6.72;6.13;;;9.70;72.30;;;;;;5073217;28;20192;-83
2021/06/01 02:42:32;;;;;;;6.97;5.72;;;9.60;73.70;;;;;;5075508;28;20191;-84
2021/06/01 02:44:59;;;;;;;7.00;5.90;;;9.60;74.20;;;;;;5091798;28;20194;-83
2021/06/01 02:47:25;;;;;;;9.77;5.65;;;9.70;74.00;;;;;;5080406;28;20241;-83
2021/06/01 02:49:53;;;;;;;6.38;5.47;;;9.70;73.70;;;;;;5089905;28;20729;-83
2021/06/01 02:52:21;;;;;;;6.55;5.95;;;9.70;73.50;;;;;;5084068;28;20187;-83
2021/06/01 02:54:49;;;;;;;7.10;5.70;;;9.80;73.50;;;;;;5072129;28;20257;-83
2021/06/01 02:57:16;;;;;;;6.05;5.45;;;9.80;72.60;;;;;;5078382;28;20237;-84
2021/06/01 02:59:44;;;;;;;6.15;5.28;;;9.80;71.50;;;;;;5082945;28;20202;-84
2021/06/01 03:02:10;;;;;;;9.10;5.22;;;9.70;72.00;;;;;;5091657;28;20198;-84
2021/06/01 03:04:48;;;;;;;6.00;5.07;;;9.70;71.70;;;;;;5081785;28;20195;-84
2021/06/01 03:07:15;;;;;;;7.15;5.60;;;9.60;71.20;;;;;;5078471;28;20201;-84
2021/06/01 03:09:44;;;;;;;6.43;5.20;;;9.70;70.70;;;;;;5072508;28;20650;-84
2021/06/01 03:12:21;;;;;;;6.25;5.63;;;9.60;70.70;;;;;;5073302;28;20577;-83
2021/06/01 03:14:48;;;;;;;5.35;4.85;;;9.50;70.40;;;;;;5071592;28;20230;-84
2021/06/01 03:17:14;;;;;;;6.47;5.88;;;9.40;70.60;;;;;;5089731;28;20550;-83
2021/06/01 03:19:41;;;;;;;6.15;5.55;;;9.40;72.60;;;;;;5079731;28;20191;-84
2021/06/01 03:22:07;;;;;;;5.80;5.28;;;9.20;75.00;;;;;;5087621;28;20207;-84
2021/06/01 03:24:34;;;;;;;6.68;6.07;;;9.30;75.50;;;;;;5078417;28;20687;-83
2021/06/01 03:27:02;;;;;;;7.70;5.90;;;9.10;74.20;;;;;;5071386;28;20199;-83
2021/06/01 03:29:29;;;;;;;4.80;4.35;;;9.30;74.30;;;;;;5086791;28;20191;-83
2021/06/01 03:31:56;;;;;;;7.07;5.38;;;9.20;72.70;;;;;;5088090;28;20229;-83
2021/06/01 03:34:23;;;;;;;5.20;4.80;;;9.20;73.60;;;;;;5091594;28;20215;-83
2021/06/01 03:36:50;;;;;;;4.93;4.53;;;9.00;76.80;;;;;;5076953;28;20218;-83
2021/06/01 03:39:17;;;;;;;6.07;5.22;;;8.90;77.80;;;;;;5071387;28;20200;-83
2021/06/01 03:41:43;;;;;;;5.85;5.25;;;9.10;76.10;;;;;;5072277;28;20249;-83
2021/06/01 03:44:11;;;;;;;6.93;5.25;;;9.20;74.50;;;;;;5071409;28;20234;-83
2021/06/01 03:46:38;;;;;;;6.72;4.90;;;9.20;74.70;;;;;;5078715;28;20219;-83
2021/06/01 03:49:04;;;;;;;7.10;5.10;;;9.20;74.70;;;;;;5088078;28;20230;-83
2021/06/01 03:51:30;;;;;;;5.25;4.75;;;9.20;76.70;;;;;;5090211;28;20210;-83
2021/06/01 03:53:57;;;;;;;5.95;4.55;;;9.00;77.70;;;;;;5075858;28;20297;-83
2021/06/01 03:56:24;;;;;;;8.05;4.53;;;9.00;79.20;;;;;;5080166;28;20217;-83
2021/06/01 03:58:50;;;;;;;4.97;4.57;;;9.20;77.80;;;;;;5076671;28;20199;-83
2021/06/01 04:01:18;;;;;;;4.38;3.90;;;9.20;77.80;;;;;;5084833;28;20199;-82
2021/06/01 04:03:45;;;;;;;4.32;3.92;;;9.30;76.40;;;;;;5085385;28;20199;-83
2021/06/01 04:06:12;;;;;;;6.75;5.13;;;9.30;77.40;;;;;;5076341;28;20198;-83
2021/06/01 04:08:40;;;;;;;4.18;3.88;;;9.20;78.00;;;;;;5085617;28;20231;-83
2021/06/01 04:11:07;;;;;;;6.32;5.35;;;9.30;77.30;;;;;;5078962;28;20195;-83
2021/06/01 04:13:33;;;;;;;5.47;4.97;;;9.50;76.80;;;;;;5070829;28;20203;-82
2021/06/01 04:16:00;;;;;;;5.47;4.90;;;9.50;77.70;;;;;;5080162;28;20191;-83
2021/06/01 04:18:27;;;;;;;5.82;5.32;;;9.60;76.90;;;;;;5085572;28;20196;-83
2021/06/01 04:20:54;;;;;;;5.78;5.22;;;9.60;75.40;;;;;;5079532;28;20191;-83
2021/06/01 04:23:21;;;;;;;6.30;4.57;;;9.70;77.50;;;;;;5070283;28;20665;-83
2021/06/01 04:25:47;;;;;;;6.15;5.20;;;9.80;75.70;;;;;;5073401;28;20227;-83
2021/06/01 04:28:13;;;;;;;6.97;5.10;;;9.80;75.70;;;;;;5090914;28;20222;-83
2021/06/01 04:30:44;;;;;;;6.40;5.68;;;9.90;77.90;;;;;;5083443;28;20808;-83
2021/06/01 04:33:11;;;;;;;9.45;5.75;;;9.90;77.60;;;;;;5070479;28;20274;-84
2021/06/01 04:35:39;;;;;;;5.82;5.32;;;10.00;76.40;;;;;;5072530;28;20223;-84
2021/06/01 04:38:05;;;;;;;5.88;5.22;;;10.10;74.80;;;;;;5090314;28;20289;-84
2021/06/01 04:40:32;;;;;;;5.43;4.93;;;10.20;74.30;;;;;;5075384;28;20182;-84
2021/06/01 04:42:59;;;;;;;5.75;5.20;;;10.30;73.90;;;;;;5072305;28;20206;-84
2021/06/01 04:45:25;;;;;;;5.30;4.85;;;10.30;72.60;;;;;;5082810;28;20191;-83
2021/06/01 04:47:52;;;;;;;6.60;4.97;;;10.40;72.50;;;;;;5083007;28;20579;-84
2021/06/01 04:50:19;;;;;;;6.43;4.25;;;10.50;71.80;;;;;;5071334;28;20249;-83
2021/06/01 04:52:47;;;;;;;5.18;4.55;;;10.60;70.40;;;;;;5079620;28;20287;-83
2021/06/01 04:55:14;;;;;;;4.28;3.97;;;10.60;70.30;;;;;;5087682;28;20214;-83
2021/06/01 04:57:41;;;;;;;8.83;4.60;;;10.70;70.70;;;;;;5090464;28;20270;-84
2021/06/01 05:00:10;;;;;;;4.53;4.13;;;10.90;69.10;;;;;;5085090;28;20683;-84
2021/06/01 05:02:36;;;;;;;5.77;4.40;;;11.00;68.50;;;;;;5074242;28;21220;-84
2021/06/01 05:05:03;;;;;;;4.33;3.93;;;11.10;68.40;;;;;;5087986;28;21013;-84
2021/06/01 05:07:30;;;;;;;4.47;4.13;;;11.30;66.10;;;;;;5087017;28;20620;-84
2021/06/01 05:10:00;;;;;;;5.03;4.10;;;11.50;64.70;;;;;;5090130;28;21010;-83
2021/06/01 05:12:27;;;;;;;5.03;4.50;;;11.60;64.00;;;;;;5089759;28;20665;-84
2021/06/01 05:14:54;;;;;;;5.60;4.67;;;11.70;63.60;;;;;;5089865;28;20729;-84
2021/06/01 05:17:20;;;;;;;4.47;4.07;;;11.90;63.60;;;;;;5070844;28;20621;-84
2021/06/01 05:19:46;;;;;;;5.07;4.57;;;11.90;62.90;;;;;;5084801;28;20762;-84
2021/06/01 05:22:13;;;;;;;4.40;4.10;;;12.00;62.80;;;;;;5077218;28;20633;-84
2021/06/01 05:24:40;;;;;;;4.20;3.40;;;12.20;61.90;;;;;;5064384;28;20688;-83
2021/06/01 05:27:08;;;;;;;4.50;4.10;;;12.20;61.70;;;;;;5076117;28;20613;-84
2021/06/01 05:29:38;;;;;;;4.57;4.17;;;12.30;61.30;;;;;;5080577;28;20629;-84
2021/06/01 05:32:10;;;;;;;4.80;4.40;;;12.50;63.10;;;;;;5083306;28;20681;-85
2021/06/01 05:34:38;;;;;;;4.73;4.33;;;12.60;62.40;;;;;;5081286;28;20661;-84
2021/06/01 05:37:04;;;;;;;3.73;3.43;;;12.70;61.70;;;;;;5089934;28;20631;-84
2021/06/01 05:39:31;;;;;;;4.47;3.60;;;12.80;62.20;;;;;;5087385;28;20614;-84
2021/06/01 05:41:57;;;;;;;4.50;3.83;;;12.90;61.00;;;;;;5075796;28;20622;-84
2021/06/01 05:44:25;;;;;;;4.37;4.00;;;13.00;60.10;;;;;;5089591;28;20753;-84
2021/06/01 05:46:52;;;;;;;4.90;4.47;;;13.00;59.90;;;;;;5094552;28;20620;-84
2021/06/01 05:49:18;;;;;;;5.47;4.23;;;13.10;59.90;;;;;;5087911;28;20629;-84
2021/06/01 05:51:45;;;;;;;4.30;3.90;;;13.10;60.80;;;;;;5093755;28;20640;-84
2021/06/01 05:54:12;;;;;;;4.90;3.37;;;13.30;60.10;;;;;;5084600;28;21213;-84
2021/06/01 05:56:38;;;;;;;6.10;4.53;;;13.40;59.20;;;;;;5075596;28;20636;-85
2021/06/01 05:59:05;;;;;;;6.30;5.40;;;13.40;59.20;;;;;;5085440;28;20621;-84
2021/06/01 06:01:33;;;;;;;3.77;3.33;;;13.50;59.10;;;;;;5078367;28;20624;-83
2021/06/01 06:03:59;;;;;;;4.60;3.70;;;13.70;58.20;;;;;;5074472;28;20620;-85
2021/06/01 06:06:25;;;;;;;6.00;4.20;;;13.80;57.80;;;;;;5081517;28;20643;-84
2021/06/01 06:08:52;;;;;;;3.80;3.50;;;13.90;58.30;;;;;;5094023;28;20616;-83
2021/06/01 06:11:18;;;;;;;6.10;3.90;;;14.00;58.70;;;;;;5079355;28;20653;-83
2021/06/01 06:13:45;;;;;;;4.23;3.80;;;14.10;57.90;;;;;;5082871;28;21512;-83
2021/06/01 06:16:17;;;;;;;4.53;4.13;;;14.20;57.70;;;;;;5093449;28;20617;-83
2021/06/01 06:18:51;;;;;;;4.30;3.77;;;14.30;56.50;;;;;;5082409;28;20621;-83
2021/06/01 06:21:17;;;;;;;4.90;3.43;;;14.40;57.00;;;;;;5091993;28;20763;-83
2021/06/01 06:23:44;;;;;;;4.40;3.87;;;14.50;57.20;;;;;;5089609;28;21043;-84
2021/06/01 06:26:10;;;;;;;4.73;3.97;;;14.60;57.00;;;;;;5071355;28;20663;-84
2021/06/01 06:28:37;;;;;;;4.30;3.80;;;14.70;57.00;;;;;;5081608;28;20617;-84
2021/06/01 06:31:04;;;;;;;4.63;4.23;;;14.80;56.00;;;;;;5087626;28;20657;-84
2021/06/01 06:33:30;;;;;;;4.17;3.87;;;14.90;56.80;;;;;;5067327;28;20637;-84
2021/06/01 06:35:58;;;;;;;4.13;3.77;;;15.00;56.80;;;;;;5072758;28;20660;-84
2021/06/01 06:38:24;;;;;;;6.83;3.90;;;15.00;57.90;;;;;;5071432;28;20628;-85
2021/06/01 06:41:00;;;;;;;4.30;3.90;;;15.00;56.90;;;;;;5082390;28;20629;-84
2021/06/01 06:43:26;;;;;;;4.63;4.10;;;15.10;55.80;;;;;;5091771;28;20731;-84
2021/06/01 06:45:53;;;;;;;6.03;4.40;;;15.20;56.10;;;;;;5081429;28;20678;-85
2021/06/01 06:48:19;;;;;;;5.57;3.37;;;15.30;54.70;;;;;;5072565;28;20699;-84
2021/06/01 06:50:46;;;;;;;4.60;4.20;;;15.40;54.90;;;;;;5079537;28;20642;-83
2021/06/01 06:53:14;;;;;;;3.87;3.57;;;15.60;54.60;;;;;;5079981;28;20640;-84
2021/06/01 06:55:40;;;;;;;5.40;3.90;;;15.60;54.70;;;;;;5085297;28;20718;-84
2021/06/01 06:58:09;;;;;;;4.50;4.10;;;15.70;54.40;;;;;;5073223;28;20624;-85
2021/06/01 07:00:36;;;;;;;5.87;3.90;;;15.80;54.70;;;;;;5074990;28;20620;-84
2021/06/01 07:03:02;;;;;;;3.70;3.40;;;15.80;54.50;;;;;;5073128;28;20623;-83
2021/06/01 07:05:29;;;;;;;4.33;3.93;;;15.90;54.70;;;;;;5086797;28;20637;-84
2021/06/01 07:07:56;;;;;;;3.77;3.47;;;16.10;54.30;;;;;;5080704;28;20636;-83
2021/06/01 07:10:25;;;;;;;3.60;3.23;;;16.20;53.60;;;;;;5078292;28;20722;-85
2021/06/01 07:12:52;;;;;;;4.73;4.30;;;16.40;53.10;;;;;;5091374;28;20616;-85
2021/06/01 07:15:36;;;;;;;3.83;3.43;;;16.50;52.80;;;;;;5081073;28;20737;-85
2021/06/01 07:18:03;;;;;;;4.00;3.70;;;16.60;53.30;;;;;;5090572;28;21047;-86
2021/06/01 07:20:31;;;;;;;4.00;3.70;;;16.70;52.10;;;;;;5083994;28;20724;-85
2021/06/01 07:22:58;;;;;;;7.43;3.40;;;16.80;51.40;;;;;;5047338;28;1143722;-85
2021/06/01 07:25:26;;;;;;;4.30;3.07;;;16.80;50.90;;;;;;5090111;28;20681;-85
2021/06/01 07:27:53;;;;;;;4.10;3.67;;;16.90;51.60;;;;;;5088012;28;20671;-84
2021/06/01 07:30:20;;;;;;;5.20;3.40;;;17.00;50.80;;;;;;5088384;28;20600;-83
2021/06/01 07:32:47;;;;;;;3.47;3.17;;;17.00;50.20;;;;;;5084482;28;20682;-84
2021/06/01 07:35:15;;;;;;;6.73;3.43;;;17.20;50.50;;;;;;5081434;28;21522;-85
2021/06/01 07:37:42;;;;;;;4.03;3.20;;;17.20;50.00;;;;;;5083306;28;20616;-85
2021/06/01 07:40:09;;;;;;;3.60;3.30;;;17.30;49.20;;;;;;5083320;28;20712;-84
2021/06/01 07:42:36;;;;;;;3.37;3.07;;;17.50;49.40;;;;;;5081351;28;20622;-86
2021/06/01 07:45:04;;;;;;;5.80;3.47;;;17.50;48.90;;;;;;5078482;28;20664;-84
2021/06/01 07:47:30;;;;;;;7.30;3.30;;;17.60;48.30;;;;;;5079807;28;20613;-84
2021/06/01 07:49:57;;;;;;;3.60;3.40;;;17.70;49.20;;;;;;5087284;28;20690;-84
2021/06/01 07:52:24;;;;;;;4.63;3.33;;;17.90;48.30;;;;;;5088352;28;20712;-85
2021/06/01 07:54:54;;;;;;;3.60;3.30;;;17.90;48.50;;;;;;5084537;28;20644;-84
2021/06/01 07:57:21;;;;;;;4.40;3.47;;;18.00;48.00;;;;;;5091241;28;20682;-84
2021/06/01 07:59:48;;;;;;;3.90;3.60;;;18.10;48.80;;;;;;5085986;28;20730;-84
2021/06/01 08:02:15;;;;;;;3.97;3.57;;;18.10;48.40;;;;;;5078138;28;20740;-84
2021/06/01 08:04:42;;;;;;;4.13;3.90;;;18.20;48.30;;;;;;5086470;28;20622;-85
2021/06/01 08:07:09;;;;;;;5.53;3.80;;;18.30;47.50;;;;;;5090413;28;20628;-84
2021/06/01 08:09:36;;;;;;;3.10;2.80;;;18.30;48.10;;;;;;5090285;28;20617;-85
2021/06/01 08:12:03;;;;;;;4.37;3.57;;;18.50;47.90;;;;;;5090436;28;20732;-85
2021/06/01 08:14:30;;;;;;;3.83;3.40;;;18.50;47.00;;;;;;5089286;28;20650;-84
2021/06/01 08:16:59;;;;;;;3.77;3.47;;;18.50;47.10;;;;;;5091294;28;20601;-84
2021/06/01 08:19:28;;;;;;;5.17;3.73;;;18.60;47.60;;;;;;5088877;28;20671;-85
2021/06/01 08:21:57;;;;;;;4.37;3.97;;;18.70;48.00;;;;;;5088845;28;20641;-84
2021/06/01 08:24:25;;;;;;;3.80;3.50;;;18.70;47.50;;;;;;5074357;28;20634;-84
2021/06/01 08:26:52;;;;;;;5.77;3.77;;;18.90;47.90;;;;;;5086733;28;20617;-84
2021/06/01 08:29:19;;;;;;;9.30;3.73;;;19.00;48.60;;;;;;5090205;28;20628;-84
2021/06/01 08:31:46;;;;;;;4.50;3.00;;;19.10;47.80;;;;;;5092102;28;20660;-83
2021/06/01 08:34:15;;;;;;;5.07;4.43;;;19.20;47.80;;;;;;5093074;28;20641;-84
2021/06/01 08:36:41;;;;;;;3.43;3.13;;;19.30;48.60;;;;;;5087892;28;20625;-84
2021/06/01 08:39:09;;;;;;;4.50;3.37;;;19.40;48.80;;;;;;5082804;28;20619;-84
2021/06/01 08:41:37;;;;;;;3.13;2.93;;;19.60;46.10;;;;;;5082705;28;20661;-84
2021/06/01 08:44:06;;;;;;;3.23;2.93;;;19.60;43.00;;;;;;5070745;28;20652;-83
2021/06/01 08:46:34;;;;;;;2.83;2.63;;;19.70;43.50;;;;;;5070650;28;20990;-85
2021/06/01 08:49:00;;;;;;;3.10;2.80;;;19.70;43.20;;;;;;5079515;28;20635;-84
2021/06/01 08:51:29;;;;;;;7.27;2.97;;;19.90;44.60;;;;;;5088796;28;20619;-85
2021/06/01 08:53:57;;;;;;;3.10;2.90;;;19.90;43.60;;;;;;5070006;28;20722;-85
2021/06/01 08:56:25;;;;;;;6.03;3.53;;;20.00;43.60;;;;;;5074433;28;20742;-84
2021/06/01 08:58:51;;;;;;;4.23;3.30;;;20.10;43.50;;;;;;5074561;28;20972;-84
2021/06/01 09:01:19;;;;;;;3.23;3.00;;;20.20;43.20;;;;;;5085691;28;20623;-85
2021/06/01 09:03:48;;;;;;;3.57;3.30;;;20.20;43.50;;;;;;5089297;28;20719;-85
2021/06/01 09:06:20;;;;;;;3.20;3.00;;;20.30;43.10;;;;;;5087220;28;20632;-85
2021/06/01 09:08:59;;;;;;;5.13;3.33;;;20.30;42.70;;;;;;5079737;28;20654;-84
2021/06/01 09:11:39;;;;;;;7.83;3.40;;;20.30;41.50;;;;;;5070174;28;20689;-84
2021/06/01 09:14:23;;;;;;;3.53;3.23;;;20.40;41.70;;;;;;5070319;28;20670;-84
2021/06/01 09:22:30;;;;;;;3.27;3.00;;;20.70;41.10;;;;;;5069998;28;20633;-85
2021/06/01 09:25:04;;;;;;;3.83;3.53;;;20.70;40.70;;;;;;5082976;28;21061;-84
2021/06/01 09:27:41;;;;;;;3.70;3.30;;;20.70;41.00;;;;;;5085332;28;20657;-85
2021/06/01 09:30:08;;;;;;;3.30;3.10;;;20.80;40.90;;;;;;5089539;28;20616;-84
2021/06/01 09:32:42;;;;;;;7.33;3.30;;;20.90;40.00;;;;;;5089642;28;20665;-84
2021/06/01 09:35:10;;;;;;;3.33;3.03;;;20.90;40.50;;;;;;5078047;28;20672;-85
2021/06/01 09:37:36;;;;;;;6.33;3.60;;;21.10;40.50;;;;;;5083613;28;20620;-84
2021/06/01 09:40:09;;;;;;;4.93;3.40;;;21.10;40.70;;;;;;5073013;28;21181;-84
2021/06/01 09:42:41;;;;;;;5.20;3.07;;;21.10;40.00;;;;;;5078222;28;21249;-84
2021/06/01 09:45:11;;;;;;;3.20;2.90;;;21.20;40.30;;;;;;5071344;28;20609;-85
2021/06/01 09:47:45;;;;;;;4.00;3.70;;;21.30;40.20;;;;;;5069975;28;20671;-84
2021/06/01 09:50:17;;;;;;;3.50;2.87;;;21.40;40.40;;;;;;5085306;28;20670;-84
2021/06/01 09:52:49;;;;;;;3.20;2.90;;;21.40;41.10;;;;;;5081307;28;20691;-84
2021/06/01 09:55:25;;;;;;;3.10;2.80;;;21.50;40.20;;;;;;5069854;28;20862;-85
2021/06/01 09:57:52;;;;;;;3.17;2.97;;;21.60;40.20;;;;;;5070765;28;20620;-85
2021/06/01 10:00:20;;;;;;;3.37;3.17;;;21.70;40.30;;;;;;5077093;28;20686;-84
2021/06/01 10:02:49;;;;;;;7.50;3.07;;;21.80;41.30;;;;;;5084818;28;20674;-84
2021/06/01 10:05:18;;;;;;;3.50;3.20;;;21.80;40.00;;;;;;5087639;28;20664;-85
2021/06/01 10:07:45;;;;;;;3.03;2.83;;;21.90;39.60;;;;;;5076053;28;20632;-85
2021/06/01 10:10:18;;;;;;;3.97;2.90;;;22.00;40.80;;;;;;5078394;28;20645;-84
2021/06/01 10:12:47;;;;;;;3.57;3.00;;;22.10;37.90;;;;;;5089767;28;20617;-85
2021/06/01 10:15:15;;;;;;;3.00;2.80;;;22.00;37.90;;;;;;5090183;28;21007;-85
2021/06/01 10:17:42;;;;;;;3.23;3.03;;;22.20;39.20;;;;;;5091206;28;20620;-84
2021/06/01 10:20:09;;;;;;;2.90;2.70;;;22.30;39.40;;;;;;5089232;28;20616;-84
2021/06/01 10:22:36;;;;;;;4.17;3.77;;;22.40;38.30;;;;;;5090723;28;20719;-84
2021/06/01 10:25:04;;;;;;;3.20;3.00;;;22.50;40.20;;;;;;5090217;28;20644;-84
2021/06/01 10:27:32;;;;;;;3.57;3.33;;;22.70;38.60;;;;;;5092841;28;21001;-86
2021/06/01 10:29:58;;;;;;;2.77;2.57;;;22.70;38.80;;;;;;5080400;28;20629;-84
2021/06/01 10:32:25;;;;;;;3.80;2.87;;;22.80;38.20;;;;;;5085749;28;21399;-85
2021/06/01 10:34:53;;;;;;;3.37;3.07;;;22.90;38.60;;;;;;5089332;28;20661;-85
2021/06/01 10:43:49;;;;;;;2.80;2.60;;;23.00;38.00;;;;;;5092947;28;20610;-85
2021/06/01 10:50:02;;;;;;;3.10;2.80;;;23.30;38.20;;;;;;5082490;28;20986;-86
2021/06/01 10:52:29;;;;;;;2.80;2.60;;;23.50;37.20;;;;;;5072797;28;20626;-85
2021/06/01 10:55:01;;;;;;;3.07;2.87;;;23.70;38.00;;;;;;5078391;28;20655;-86
2021/06/01 10:57:54;;;;;;;3.80;3.50;;;23.70;37.90;;;;;;5078238;28;20628;-88
2021/06/01 11:03:11;;;;;;;3.10;2.70;;;24.00;37.00;;;;;;5073269;28;20621;-86
2021/06/01 11:06:06;;;;;;;4.63;3.00;;;24.20;36.00;;;;;;5078561;28;20689;-85
2021/06/01 11:08:43;;;;;;;3.47;3.17;;;24.30;35.80;;;;;;5076326;28;20624;-86
2021/06/01 11:11:34;;;;;;;5.63;3.00;;;24.50;37.10;;;;;;5073281;28;20686;-86
2021/06/01 11:14:02;;;;;;;2.80;2.60;;;24.50;37.00;;;;;;5074780;28;21193;-85
2021/06/01 11:16:58;;;;;;;3.43;3.13;;;24.60;35.90;;;;;;5073110;28;20708;-85
2021/06/01 11:19:28;;;;;;;3.00;2.80;;;24.80;36.70;;;;;;5039936;28;20731;-86
2021/06/01 11:21:59;;;;;;;3.23;3.03;;;24.90;35.40;;;;;;5071734;28;20769;-86
2021/06/01 11:35:54;;;;;;;7.07;3.13;;;26.10;35.90;;;;;;5072367;28;20661;-85
2021/06/01 11:38:24;;;;;;;3.80;3.43;;;26.60;34.20;;;;;;5071739;28;20753;-85
2021/06/01 11:43:34;;;;;;;3.37;3.10;;;27.10;34.80;;;;;;5073738;28;20639;-85
2021/06/01 11:46:09;;;;;;;3.30;3.10;;;27.50;32.30;;;;;;5090200;28;20628;-85
2021/06/01 11:51:35;;;;;;;4.30;3.27;;;28.00;33.70;;;;;;5071330;28;20667;-85
2021/06/01 11:54:04;;;;;;;3.53;3.20;;;28.30;32.90;;;;;;5085778;28;20756;-85
2021/06/01 11:56:46;;;;;;;4.23;2.80;;;28.40;33.70;;;;;;5070776;28;20661;-84
2021/06/01 12:02:04;;;;;;;2.87;2.67;;;29.60;31.50;;;;;;5071549;28;20617;-85
2021/06/01 12:04:49;;;;;;;6.53;2.87;;;30.50;31.90;;;;;;5073871;28;21197;-84
2021/06/01 12:12:55;;;;;;;3.50;3.20;;;32.90;29.80;;;;;;5091308;28;21323;-85
2021/06/01 12:18:31;;;;;;;3.50;3.30;;;33.60;28.80;;;;;;5028206;28;20991;-86
2021/06/01 12:20:59;;;;;;;3.03;2.83;;;33.80;28.40;;;;;;5040684;28;20705;-86
2021/06/01 12:23:28;;;;;;;3.83;3.53;;;33.80;28.00;;;;;;5059394;28;20724;-87
2021/06/01 12:26:01;;;;;;;3.23;3.00;;;33.80;28.00;;;;;;5072083;28;20625;-87
2021/06/01 12:31:17;;;;;;;4.13;3.20;;;34.20;28.20;;;;;;5089325;28;20630;-87
2021/06/01 12:33:57;;;;;;;4.10;3.80;;;34.20;27.90;;;;;;5090871;28;20620;-87
2021/06/01 12:42:03;;;;;;;2.83;2.70;;;34.50;27.60;;;;;;5070717;28;20627;-87
2021/06/01 12:44:39;;;;;;;4.47;3.47;;;35.10;27.70;;;;;;5070153;28;20711;-87
2021/06/01 12:47:23;;;;;;;3.00;2.80;;;34.90;28.40;;;;;;5070072;28;20685;-86
2021/06/01 13:12:31;;;;;;;3.63;2.70;;;36.40;26.50;;;;;;5070414;28;21191;-87
2021/06/01 13:21:01;;;;;;;3.27;3.07;;;35.80;27.30;;;;;;5080177;28;20674;-88
2021/06/01 13:24:02;;;;;;;3.73;3.43;;;35.70;27.30;;;;;;5071150;28;20633;-91
2021/06/01 13:32:26;;;;;;;3.20;2.87;;;36.10;26.70;;;;;;5070210;28;21184;-87
2021/06/01 13:40:36;;;;;;;2.97;2.87;;;36.10;26.30;;;;;;5078335;28;20671;-87
2021/06/01 13:46:06;;;;;;;3.27;2.93;;;36.20;26.60;;;;;;5069701;28;20713;-88
2021/06/01 13:51:51;;;;;;;3.33;3.13;;;36.30;25.80;;;;;;5071129;28;21186;-88
2021/06/01 13:57:08;;;;;;;3.40;3.20;;;36.30;26.50;;;;;;5092497;28;21192;-90
2021/06/01 13:59:46;;;;;;;3.20;3.00;;;36.60;25.70;;;;;;5081165;28;20621;-87
2021/06/01 14:10:49;;;;;;;3.63;3.27;;;36.20;26.50;;;;;;5089544;28;21201;-87
2021/06/01 14:21:47;;;;;;;6.30;3.30;;;35.10;26.60;;;;;;5073135;28;20710;-89
2021/06/01 14:29:53;;;;;;;3.87;3.10;;;34.80;26.30;;;;;;5081091;28;20667;-88
2021/06/01 15:11:33;;;;;;;2.97;2.73;;;31.80;28.70;;;;;;5070588;28;20755;-89
2021/06/01 15:48:04;;;;;;;4.10;3.70;;;26.10;33.70;;;;;;5079719;28;20622;-94
2021/06/01 15:50:39;;;;;;;3.53;3.33;;;25.90;33.70;;;;;;5084572;28;20697;-90
2021/06/01 15:53:35;;;;;;;4.07;3.63;;;25.30;34.10;;;;;;5092617;28;21228;-88
2021/06/01 16:21:27;;;;;;;3.07;2.70;;;24.30;34.90;;;;;;5089028;28;20635;-88
2021/06/01 16:32:17;;;;;;;3.17;2.97;;;23.90;35.00;;;;;;5080405;28;20645;-91
2021/06/01 16:43:21;;;;;;;7.10;6.40;;;23.40;34.50;;;;;;5093853;28;20599;-88
2021/06/01 17:05:12;;;;;;;3.50;3.20;;;23.30;34.90;;;;;;5071153;28;20624;-88
2021/06/01 17:07:57;;;;;;;7.53;4.23;;;23.20;35.30;;;;;;5081967;28;20644;-88
2021/06/01 17:13:13;;;;;;;3.00;2.63;;;23.00;36.40;;;;;;5088214;28;20605;-90
2021/06/01 17:15:41;;;;;;;3.23;2.97;;;23.00;36.40;;;;;;5085865;28;20649;-88
2021/06/01 17:18:14;;;;;;;4.30;3.27;;;22.90;36.00;;;;;;5088059;28;20608;-87
2021/06/01 17:21:18;;;;;;;5.53;2.97;;;23.00;35.70;;;;;;5068500;28;20647;-87
2021/06/01 17:23:57;;;;;;;3.67;3.40;;;22.90;35.30;;;;;;5082794;28;21027;-90
2021/06/01 17:32:20;;;;;;;3.60;3.30;;;22.60;35.30;;;;;;5074270;28;20621;-89
2021/06/01 17:34:55;;;;;;;3.23;2.93;;;22.60;35.80;;;;;;5082563;28;20981;-88
2021/06/01 17:37:22;;;;;;;2.73;2.53;;;22.60;36.30;;;;;;5081516;28;20708;-88
2021/06/01 17:39:48;;;;;;;2.60;2.40;;;22.60;36.50;;;;;;5086802;28;21457;-88
2021/06/01 17:42:17;;;;;;;2.80;2.60;;;22.50;36.00;;;;;;5074138;28;20602;-88
2021/06/01 17:44:46;;;;;;;3.23;3.03;;;22.40;36.10;;;;;;5084939;28;20625;-86
2021/06/01 17:47:17;;;;;;;3.27;3.07;;;22.20;36.90;;;;;;5075166;28;20652;-88
2021/06/01 17:49:50;;;;;;;2.73;2.53;;;22.20;37.30;;;;;;5075881;28;21044;-87
2021/06/01 17:52:23;;;;;;;3.00;2.80;;;22.20;37.00;;;;;;5082087;28;20673;-89
2021/06/01 17:54:51;;;;;;;6.13;3.10;;;22.20;36.40;;;;;;5082612;28;20648;-88
2021/06/01 17:57:19;;;;;;;3.57;3.27;;;22.20;36.10;;;;;;5092101;28;20713;-88
2021/06/01 17:59:46;;;;;;;3.23;3.03;;;22.20;36.60;;;;;;5080275;28;20624;-87
2021/06/01 18:02:14;;;;;;;3.40;3.10;;;22.20;36.90;;;;;;5073425;28;20970;-87
2021/06/01 18:04:44;;;;;;;3.63;3.43;;;22.10;37.90;;;;;;5088762;28;20629;-87
2021/06/01 18:07:15;;;;;;;4.27;3.30;;;22.10;37.20;;;;;;5082350;28;20625;-87
2021/06/01 18:29:42;;;;;;;3.57;3.27;;;21.60;39.70;;;;;;5071927;28;21215;-87
2021/06/01 18:37:56;;;;;;;3.00;2.80;;;21.40;38.50;;;;;;5088062;28;20620;-89
2021/06/01 18:40:59;;;;;;;2.97;2.77;;;21.40;38.60;;;;;;5085331;28;20662;-88
2021/06/01 18:51:15;;;;;;;3.30;3.10;;;21.30;39.10;;;;;;5073226;28;20973;-87
2021/06/01 19:00:57;;;;;;;3.60;3.30;;;20.60;40.80;;;;;;5033062;28;21178;-88
2021/06/01 19:06:53;;;;;;;3.90;3.60;;;20.50;40.40;;;;;;5090285;28;20666;-88
2021/06/01 19:26:12;;;;;;;5.00;2.87;;;19.80;42.50;;;;;;5072027;28;20629;-87
2021/06/01 19:29:03;;;;;;;3.33;3.07;;;19.70;43.90;;;;;;5071761;28;20628;-88
2021/06/01 19:51:10;;;;;;;8.17;5.17;;;18.80;44.10;;;;;;5070092;28;21195;-88
2021/06/01 19:53:39;;;;;;;5.17;4.10;;;18.80;44.50;;;;;;5070643;28;20633;-87